Time;durP1;ratioP1;P1;durP2;ratioP2;P2;SDS_P1;SDS_P2;PMS_P1;PMS_P2;Temp;Humidity;BMP_temperature;BMP_pressure;BME280_temperature;BME280_humidity;BME280_pressure;Samples;Min_cycle;Max_cycle;Signal;HPM_P1;HPM_P2
2023/09/02 00:01:16;;;;;;;0.85;0.82;;;13.30;99.90;;;;;;5021999;28;20049;-65
2023/09/02 00:03:42;;;;;;;1.48;0.95;;;13.30;99.90;;;;;;5025060;28;20507;-65
2023/09/02 00:06:08;;;;;;;2.28;1.00;;;13.30;99.90;;;;;;5024900;28;21595;-65
2023/09/02 00:08:33;;;;;;;4.50;0.90;;;13.30;99.90;;;;;;5023838;28;20054;-65
2023/09/02 00:10:59;;;;;;;2.28;0.82;;;13.30;99.90;;;;;;5025596;28;20188;-65
2023/09/02 00:13:25;;;;;;;6.45;1.10;;;13.30;99.90;;;;;;5028353;28;20041;-65
2023/09/02 00:15:50;;;;;;;2.67;0.77;;;13.30;99.90;;;;;;5029213;28;20045;-65
2023/09/02 00:18:16;;;;;;;6.47;1.20;;;13.20;99.90;;;;;;5027429;28;20668;-65
2023/09/02 00:20:42;;;;;;;1.42;0.90;;;13.20;99.90;;;;;;5029051;28;20061;-65
2023/09/02 00:23:07;;;;;;;2.47;0.95;;;13.20;99.90;;;;;;5027765;28;20044;-65
2023/09/02 00:25:33;;;;;;;0.70;0.70;;;13.20;99.90;;;;;;5029171;28;20095;-65
2023/09/02 00:27:59;;;;;;;1.10;0.80;;;13.20;99.90;;;;;;5026823;28;20124;-65
2023/09/02 00:30:25;;;;;;;4.80;0.80;;;13.10;99.90;;;;;;5029707;28;20099;-65
2023/09/02 00:32:51;;;;;;;1.15;0.90;;;13.10;99.90;;;;;;5027206;28;20053;-65
2023/09/02 00:35:17;;;;;;;1.17;0.82;;;13.10;99.90;;;;;;5029435;28;20052;-66
2023/09/02 00:37:43;;;;;;;1.85;1.20;;;13.10;99.90;;;;;;5028308;28;20075;-65
2023/09/02 00:40:13;;;;;;;2.22;1.02;;;13.10;99.90;;;;;;5028962;28;20037;-65
2023/09/02 00:42:40;;;;;;;3.97;1.40;;;13.10;99.90;;;;;;5029459;28;20045;-65
2023/09/02 00:45:06;;;;;;;2.13;1.23;;;13.00;99.90;;;;;;5027347;28;20064;-65
2023/09/02 00:47:33;;;;;;;4.00;1.33;;;13.10;99.90;;;;;;5028855;28;20510;-65
2023/09/02 00:50:00;;;;;;;3.05;1.10;;;13.00;99.90;;;;;;5028122;28;20099;-66
2023/09/02 00:52:25;;;;;;;1.40;1.30;;;13.00;99.90;;;;;;5027855;28;20045;-66
2023/09/02 00:54:51;;;;;;;3.03;1.30;;;13.00;99.90;;;;;;5028439;28;20095;-66
2023/09/02 00:57:17;;;;;;;1.95;1.67;;;13.00;99.90;;;;;;5027368;28;20120;-65
2023/09/02 00:59:43;;;;;;;2.17;1.58;;;13.00;99.90;;;;;;5026507;28;20124;-65
2023/09/02 01:02:11;;;;;;;3.00;2.03;;;13.00;99.90;;;;;;5027259;28;20045;-65
2023/09/02 01:04:36;;;;;;;3.42;1.38;;;13.10;99.90;;;;;;5027358;28;20053;-65
2023/09/02 01:07:03;;;;;;;3.05;1.05;;;13.10;99.90;;;;;;5027843;28;20415;-65
2023/09/02 01:09:30;;;;;;;3.53;1.05;;;13.10;99.90;;;;;;5026797;28;20065;-65
2023/09/02 01:11:56;;;;;;;1.85;1.20;;;13.00;99.90;;;;;;5027894;28;20041;-65
2023/09/02 01:14:22;;;;;;;1.58;1.38;;;13.00;99.90;;;;;;5028430;28;20049;-65
2023/09/02 01:16:48;;;;;;;4.65;1.27;;;12.90;99.90;;;;;;5026712;28;20052;-65
2023/09/02 01:19:18;;;;;;;1.35;1.13;;;12.90;99.90;;;;;;5028228;28;20049;-65
2023/09/02 01:22:05;;;;;;;4.10;1.40;;;12.90;99.90;;;;;;5027557;28;20403;-65
2023/09/02 01:24:40;;;;;;;1.98;1.42;;;12.80;99.90;;;;;;5026897;28;20053;-65
2023/09/02 01:27:15;;;;;;;2.33;1.55;;;12.80;99.90;;;;;;5028186;28;20049;-65
2023/09/02 01:29:48;;;;;;;1.30;1.20;;;12.80;99.90;;;;;;5027680;28;20069;-65
2023/09/02 01:32:16;;;;;;;2.00;1.33;;;12.70;99.90;;;;;;5026497;28;20049;-65
2023/09/02 01:34:42;;;;;;;4.93;1.27;;;12.70;99.90;;;;;;5027785;28;20037;-65
2023/09/02 01:37:09;;;;;;;2.00;1.02;;;12.60;99.90;;;;;;5027873;28;20046;-65
2023/09/02 01:39:37;;;;;;;4.75;1.25;;;12.60;99.90;;;;;;5027873;28;20400;-65
2023/09/02 01:42:08;;;;;;;3.88;1.27;;;12.60;99.90;;;;;;5027443;28;20431;-66
2023/09/02 01:44:35;;;;;;;5.45;1.58;;;12.50;99.90;;;;;;5027373;28;20135;-65
2023/09/02 01:47:01;;;;;;;4.07;1.48;;;12.50;99.90;;;;;;5025724;28;20514;-65
2023/09/02 01:49:28;;;;;;;2.08;1.60;;;12.50;99.90;;;;;;5010147;28;20048;-65
2023/09/02 01:51:54;;;;;;;2.03;0.85;;;12.50;99.90;;;;;;5027220;28;20041;-65
2023/09/02 01:54:20;;;;;;;5.25;1.20;;;12.50;99.90;;;;;;5025944;28;20096;-65
2023/09/02 01:56:46;;;;;;;0.80;0.80;;;12.50;99.90;;;;;;5027548;28;20124;-65
2023/09/02 01:59:12;;;;;;;1.15;1.08;;;12.40;99.90;;;;;;5026981;28;20623;-65
2023/09/02 02:01:38;;;;;;;2.15;0.93;;;12.40;99.90;;;;;;5027555;28;20049;-65
2023/09/02 02:04:36;;;;;;;1.88;1.20;;;12.30;99.90;;;;;;5025561;28;20048;-65
2023/09/02 02:07:08;;;;;;;3.38;1.30;;;12.30;99.90;;;;;;5025348;28;20060;-65
2023/09/02 02:09:42;;;;;;;2.00;1.60;;;12.30;99.90;;;;;;5025331;28;20107;-65
2023/09/02 02:12:08;;;;;;;3.08;1.38;;;12.30;99.90;;;;;;5027239;28;20050;-65
2023/09/02 02:14:37;;;;;;;5.30;1.52;;;12.20;99.90;;;;;;5027807;28;20049;-65
2023/09/02 02:17:06;;;;;;;1.85;1.00;;;12.20;99.90;;;;;;5026649;28;20053;-65
2023/09/02 02:19:32;;;;;;;1.27;1.20;;;12.10;99.90;;;;;;5025610;28;20476;-65
2023/09/02 02:21:58;;;;;;;2.08;1.40;;;12.10;99.90;;;;;;5026370;28;20132;-65
2023/09/02 02:24:25;;;;;;;2.28;1.92;;;12.10;99.90;;;;;;5024925;28;20057;-65
2023/09/02 02:26:50;;;;;;;1.73;1.63;;;12.10;99.90;;;;;;5009188;28;20041;-65
2023/09/02 02:29:17;;;;;;;4.10;2.40;;;12.00;99.90;;;;;;5025177;28;20054;-65
2023/09/02 02:31:42;;;;;;;2.95;1.98;;;12.10;99.90;;;;;;5024883;28;20045;-65
2023/09/02 02:34:08;;;;;;;2.90;1.98;;;12.10;99.90;;;;;;5025141;28;20051;-65
2023/09/02 02:36:34;;;;;;;1.50;1.40;;;12.10;99.90;;;;;;5026661;28;20052;-65
2023/09/02 02:39:00;;;;;;;5.20;1.85;;;12.10;99.90;;;;;;5026219;28;20407;-65
2023/09/02 02:41:25;;;;;;;1.75;1.38;;;12.10;99.90;;;;;;5026870;28;20131;-65
2023/09/02 02:43:53;;;;;;;3.42;1.38;;;12.10;99.90;;;;;;5024852;28;20048;-65
2023/09/02 02:46:18;;;;;;;1.80;1.70;;;12.00;99.90;;;;;;5026333;28;20126;-65
2023/09/02 02:48:44;;;;;;;2.67;1.83;;;12.00;99.90;;;;;;5026361;28;20037;-65
2023/09/02 02:51:10;;;;;;;1.42;0.90;;;12.00;99.90;;;;;;5025995;28;20479;-65
2023/09/02 02:53:36;;;;;;;2.67;2.38;;;12.00;99.90;;;;;;5025202;28;20069;-65
2023/09/02 02:56:02;;;;;;;11.30;3.42;;;12.00;99.90;;;;;;5026105;28;20053;-65
2023/09/02 02:58:29;;;;;;;4.25;2.17;;;12.00;99.90;;;;;;5026326;28;20079;-64
2023/09/02 03:01:06;;;;;;;3.92;3.20;;;12.00;99.90;;;;;;5026177;28;20119;-65
2023/09/02 03:03:33;;;;;;;3.28;2.97;;;12.00;99.90;;;;;;5025955;28;20098;-65
2023/09/02 03:06:00;;;;;;;4.30;2.85;;;12.00;99.90;;;;;;5026094;28;20380;-65
2023/09/02 03:08:25;;;;;;;4.75;3.00;;;12.10;99.90;;;;;;5024007;28;20137;-65
2023/09/02 03:10:58;;;;;;;3.55;3.25;;;12.10;99.90;;;;;;5026683;28;20175;-65
2023/09/02 03:13:24;;;;;;;2.80;2.60;;;12.00;99.90;;;;;;5025275;28;20049;-65
2023/09/02 03:15:53;;;;;;;5.68;2.50;;;12.10;99.90;;;;;;5024564;28;20087;-65
2023/09/02 03:18:19;;;;;;;4.50;3.50;;;12.10;99.90;;;;;;5025563;28;20045;-66
2023/09/02 03:20:45;;;;;;;3.58;3.10;;;12.10;99.90;;;;;;5024587;28;20053;-65
2023/09/02 03:23:12;;;;;;;4.15;3.13;;;12.10;99.90;;;;;;5025057;28;20061;-64
2023/09/02 03:25:38;;;;;;;5.80;3.75;;;12.10;99.90;;;;;;5025169;28;20060;-65
2023/09/02 03:28:04;;;;;;;10.63;4.00;;;12.10;99.90;;;;;;5026628;28;20411;-65
2023/09/02 03:30:30;;;;;;;5.15;3.63;;;12.20;99.90;;;;;;5024968;28;20045;-65
2023/09/02 03:32:56;;;;;;;3.95;3.38;;;12.20;99.90;;;;;;5007137;28;20405;-65
2023/09/02 03:35:22;;;;;;;10.50;3.10;;;12.20;99.90;;;;;;5024983;28;20057;-65
2023/09/02 03:37:48;;;;;;;4.55;3.17;;;12.20;99.90;;;;;;5024258;28;20501;-64
2023/09/02 03:40:13;;;;;;;3.08;2.83;;;12.20;99.90;;;;;;5025377;28;20033;-65
2023/09/02 03:42:39;;;;;;;4.13;3.28;;;12.20;99.90;;;;;;5025590;28;20513;-64
2023/09/02 03:45:05;;;;;;;3.67;3.40;;;12.20;99.90;;;;;;5024104;28;20594;-64
2023/09/02 03:47:32;;;;;;;3.40;3.10;;;12.20;99.90;;;;;;5024591;28;20049;-65
2023/09/02 03:50:02;;;;;;;5.78;4.20;;;12.20;99.90;;;;;;5026276;28;20403;-65
2023/09/02 03:52:28;;;;;;;4.68;3.33;;;12.20;99.90;;;;;;5024858;28;20442;-65
2023/09/02 03:54:54;;;;;;;5.00;4.18;;;12.30;99.90;;;;;;5020534;28;20949;-65
2023/09/02 03:57:20;;;;;;;5.03;3.72;;;12.30;99.90;;;;;;5024121;28;20103;-65
2023/09/02 03:59:46;;;;;;;6.32;4.03;;;12.30;99.90;;;;;;5021387;28;20061;-64
2023/09/02 04:02:11;;;;;;;3.92;3.63;;;12.30;99.90;;;;;;5023668;28;20049;-65
2023/09/02 04:04:37;;;;;;;4.35;3.78;;;12.40;99.90;;;;;;5020842;28;20050;-65
2023/09/02 04:07:03;;;;;;;5.53;3.40;;;12.40;99.90;;;;;;5026151;28;20037;-65
2023/09/02 04:09:29;;;;;;;7.65;2.50;;;12.40;99.90;;;;;;5021572;28;20522;-65
2023/09/02 04:11:55;;;;;;;4.43;3.13;;;12.40;99.90;;;;;;5024689;28;20045;-64
2023/09/02 04:14:20;;;;;;;6.75;3.97;;;12.30;99.90;;;;;;5020440;28;20088;-65
2023/09/02 04:16:46;;;;;;;6.10;4.10;;;12.40;99.90;;;;;;5025590;28;20049;-65
2023/09/02 04:19:12;;;;;;;7.03;3.58;;;12.40;99.90;;;;;;5024851;28;20049;-65
2023/09/02 04:21:38;;;;;;;4.07;3.67;;;12.30;99.90;;;;;;5023116;28;20488;-65
2023/09/02 04:24:03;;;;;;;4.47;3.42;;;12.30;99.90;;;;;;5022113;28;20038;-65
2023/09/02 04:26:29;;;;;;;3.95;3.15;;;12.30;99.90;;;;;;5020180;28;20041;-65
2023/09/02 04:28:55;;;;;;;7.35;3.90;;;12.30;99.90;;;;;;5025964;28;20117;-65
2023/09/02 04:31:22;;;;;;;6.03;3.35;;;12.30;99.90;;;;;;5023033;28;20044;-64
2023/09/02 04:33:48;;;;;;;3.72;3.22;;;12.30;99.90;;;;;;5021303;28;20041;-65
2023/09/02 04:36:14;;;;;;;5.32;3.38;;;12.40;99.90;;;;;;5024529;28;20049;-65
2023/09/02 04:38:40;;;;;;;3.33;3.03;;;12.40;99.90;;;;;;5024755;28;20037;-65
2023/09/02 04:41:08;;;;;;;4.30;2.78;;;12.40;99.90;;;;;;5022037;28;20399;-65
2023/09/02 04:43:34;;;;;;;6.65;3.85;;;12.30;99.90;;;;;;5009849;28;20098;-65
2023/09/02 04:46:03;;;;;;;5.07;3.10;;;12.30;99.90;;;;;;5021177;28;20133;-65
2023/09/02 04:48:30;;;;;;;3.05;2.85;;;12.40;99.90;;;;;;5024247;28;20046;-65
2023/09/02 04:50:56;;;;;;;6.00;2.67;;;12.40;99.90;;;;;;5023782;28;20080;-65
2023/09/02 04:53:22;;;;;;;3.03;2.72;;;12.40;99.90;;;;;;5021447;28;20042;-65
2023/09/02 04:55:49;;;;;;;7.25;3.20;;;12.40;99.90;;;;;;5021470;28;20050;-64
2023/09/02 04:58:16;;;;;;;3.60;3.00;;;12.50;99.90;;;;;;5026865;28;20080;-65
2023/09/02 05:00:42;;;;;;;3.42;3.13;;;12.50;99.90;;;;;;5027004;28;20701;-65
2023/09/02 05:03:10;;;;;;;2.78;2.38;;;12.50;99.90;;;;;;5024062;28;20124;-65
2023/09/02 05:05:37;;;;;;;2.80;2.55;;;12.50;99.90;;;;;;5027610;28;20571;-65
2023/09/02 05:08:03;;;;;;;4.63;2.95;;;12.60;99.90;;;;;;5029330;28;20057;-65
2023/09/02 05:10:29;;;;;;;4.10;3.05;;;12.60;99.90;;;;;;5023402;28;20037;-65
2023/09/02 05:12:55;;;;;;;5.13;2.58;;;12.70;99.90;;;;;;5028344;28;20049;-65
2023/09/02 05:15:20;;;;;;;3.20;2.75;;;12.70;99.90;;;;;;5020401;28;20500;-65
2023/09/02 05:17:46;;;;;;;2.80;2.30;;;12.70;99.90;;;;;;5025587;28;20041;-64
2023/09/02 05:20:12;;;;;;;3.35;3.05;;;12.70;99.90;;;;;;5028380;28;20092;-65
2023/09/02 05:22:38;;;;;;;8.63;3.28;;;12.70;99.90;;;;;;5009246;28;20108;-64
2023/09/02 05:25:04;;;;;;;3.83;3.13;;;12.80;99.90;;;;;;5028750;28;20049;-64
2023/09/02 05:27:30;;;;;;;6.70;3.70;;;12.80;99.90;;;;;;5010115;28;20044;-65
2023/09/02 05:29:56;;;;;;;4.55;3.10;;;12.90;99.90;;;;;;5025580;28;20137;-65
2023/09/02 05:32:22;;;;;;;10.52;3.45;;;12.90;99.90;;;;;;5025428;28;20045;-65
2023/09/02 05:34:48;;;;;;;6.00;3.67;;;12.90;99.90;;;;;;5016008;28;20050;-65
2023/09/02 05:37:14;;;;;;;7.05;4.22;;;13.00;99.90;;;;;;5027797;28;20051;-65
2023/09/02 05:39:40;;;;;;;6.80;3.50;;;13.00;99.90;;;;;;5026044;28;20046;-65
2023/09/02 05:42:06;;;;;;;8.57;4.10;;;13.10;99.90;;;;;;5016662;28;20045;-65
2023/09/02 05:44:35;;;;;;;4.32;3.85;;;13.20;99.90;;;;;;5027402;28;20064;-65
2023/09/02 05:47:01;;;;;;;4.45;4.10;;;13.20;99.90;;;;;;5023475;28;20088;-65
2023/09/02 05:49:29;;;;;;;6.53;4.63;;;13.20;99.90;;;;;;5027124;28;20052;-65
2023/09/02 05:51:55;;;;;;;4.22;3.92;;;13.30;99.90;;;;;;5026202;28;20060;-65
2023/09/02 05:54:21;;;;;;;5.50;3.78;;;13.30;99.90;;;;;;5027616;28;20042;-65
2023/09/02 05:56:47;;;;;;;4.93;3.88;;;13.30;99.90;;;;;;5027364;28;20462;-65
2023/09/02 05:59:13;;;;;;;9.13;4.07;;;13.30;99.90;;;;;;5024461;28;20053;-65
2023/09/02 06:01:39;;;;;;;5.47;3.83;;;13.30;99.90;;;;;;5025491;28;20404;-65
2023/09/02 06:04:05;;;;;;;5.15;3.67;;;13.40;99.90;;;;;;5026225;28;20059;-65
2023/09/02 06:06:30;;;;;;;5.68;4.03;;;13.40;99.90;;;;;;5017645;28;20133;-65
2023/09/02 06:08:56;;;;;;;5.80;4.18;;;13.40;99.90;;;;;;5023546;28;20152;-65
2023/09/02 06:11:22;;;;;;;8.70;4.75;;;13.50;99.90;;;;;;5022750;28;20140;-65
2023/09/02 06:13:48;;;;;;;6.38;4.90;;;13.50;99.90;;;;;;5026972;28;20049;-65
2023/09/02 06:16:13;;;;;;;9.43;5.05;;;13.50;99.90;;;;;;5026839;28;20088;-65
2023/09/02 06:18:39;;;;;;;7.57;4.93;;;13.70;99.90;;;;;;5025376;28;20036;-66
2023/09/02 06:21:12;;;;;;;11.73;5.32;;;13.70;99.90;;;;;;5027104;28;20045;-65
2023/09/02 06:23:41;;;;;;;10.13;5.95;;;13.80;99.90;;;;;;5025114;28;20045;-65
2023/09/02 06:26:06;;;;;;;7.93;5.72;;;13.90;99.90;;;;;;5027050;28;20049;-65
2023/09/02 06:28:33;;;;;;;11.15;5.78;;;14.00;99.90;;;;;;5025122;28;20048;-65
2023/09/02 06:31:07;;;;;;;11.43;5.55;;;14.10;99.90;;;;;;5023116;28;20060;-65
2023/09/02 06:33:33;;;;;;;13.25;5.72;;;14.20;99.90;;;;;;5026597;28;20503;-65
2023/09/02 06:35:59;;;;;;;8.25;5.45;;;14.20;99.90;;;;;;5021106;28;20064;-65
2023/09/02 06:38:25;;;;;;;11.70;5.18;;;14.30;99.90;;;;;;5027165;28;20107;-66
2023/09/02 06:40:51;;;;;;;6.60;5.45;;;14.40;99.90;;;;;;5025855;28;20053;-65
2023/09/02 06:43:16;;;;;;;10.23;5.10;;;14.40;99.90;;;;;;5026677;28;20042;-65
2023/09/02 06:45:42;;;;;;;8.27;4.75;;;14.60;99.90;;;;;;5026367;28;20053;-65
2023/09/02 06:48:08;;;;;;;12.13;5.28;;;14.80;99.90;;;;;;5026165;28;20050;-65
2023/09/02 06:50:34;;;;;;;11.18;5.10;;;14.90;99.90;;;;;;5026478;28;20107;-65
2023/09/02 06:53:00;;;;;;;10.25;4.93;;;15.00;99.90;;;;;;5024948;28;20514;-65
2023/09/02 06:55:25;;;;;;;9.40;4.63;;;15.10;99.90;;;;;;5026797;28;20040;-65
2023/09/02 06:57:51;;;;;;;6.63;4.57;;;15.20;99.90;;;;;;5025874;28;20037;-65
2023/09/02 07:00:17;;;;;;;8.65;4.32;;;15.30;99.90;;;;;;5026990;28;20064;-65
2023/09/02 07:02:43;;;;;;;6.68;3.70;;;15.30;99.90;;;;;;5025184;28;20081;-65
2023/09/02 07:05:09;;;;;;;7.72;3.40;;;15.30;99.90;;;;;;5025015;28;20387;-65
2023/09/02 07:07:36;;;;;;;5.20;3.47;;;15.40;99.90;;;;;;5025883;28;20037;-65
2023/09/02 07:10:03;;;;;;;5.35;3.63;;;15.50;99.90;;;;;;5025897;28;20057;-65
2023/09/02 07:12:29;;;;;;;4.38;3.40;;;15.70;99.90;;;;;;5024257;28;20381;-64
2023/09/02 07:14:55;;;;;;;4.32;3.20;;;15.80;99.90;;;;;;5025964;28;20102;-65
2023/09/02 07:17:20;;;;;;;5.05;3.40;;;15.90;99.90;;;;;;5008521;28;20375;-65
2023/09/02 07:19:46;;;;;;;7.07;3.17;;;16.20;99.90;;;;;;5024156;28;20509;-65
2023/09/02 07:22:12;;;;;;;7.28;3.60;;;16.40;99.90;;;;;;5026448;28;20045;-65
2023/09/02 07:24:37;;;;;;;12.68;4.55;;;16.70;99.90;;;;;;5025988;28;20117;-65
2023/09/02 07:27:04;;;;;;;5.55;3.35;;;17.00;99.90;;;;;;5025914;28;20048;-64
2023/09/02 07:29:29;;;;;;;10.43;3.42;;;17.10;99.90;;;;;;5025344;28;20124;-65
2023/09/02 07:31:58;;;;;;;2.85;2.65;;;17.20;99.90;;;;;;5025680;28;20112;-66
2023/09/02 07:34:24;;;;;;;5.43;2.80;;;17.30;99.90;;;;;;5022923;28;20416;-65
2023/09/02 07:36:50;;;;;;;3.70;2.42;;;17.30;99.90;;;;;;5021415;28;20038;-65
2023/09/02 07:39:16;;;;;;;2.17;2.05;;;17.30;99.90;;;;;;5019631;28;20395;-65
2023/09/02 07:41:42;;;;;;;4.03;1.77;;;17.40;99.90;;;;;;5023033;28;20053;-65
2023/09/02 07:44:11;;;;;;;7.38;2.40;;;17.60;99.90;;;;;;5023581;28;20049;-65
2023/09/02 07:46:37;;;;;;;6.00;2.30;;;17.70;99.90;;;;;;5024930;28;20045;-65
2023/09/02 07:49:03;;;;;;;4.40;2.33;;;17.70;99.90;;;;;;5024436;28;20096;-65
2023/09/02 07:51:28;;;;;;;3.40;2.22;;;17.90;99.90;;;;;;5007044;28;20080;-65
2023/09/02 07:53:54;;;;;;;4.15;2.40;;;18.10;99.90;;;;;;5021803;28;20415;-65
2023/09/02 07:56:22;;;;;;;3.13;2.22;;;18.20;99.90;;;;;;5023965;28;20507;-65
2023/09/02 07:58:49;;;;;;;5.88;2.30;;;18.40;99.90;;;;;;5024712;28;20065;-65
2023/09/02 08:01:15;;;;;;;3.08;1.85;;;18.60;99.90;;;;;;5025571;28;20056;-65
2023/09/02 08:03:41;;;;;;;5.25;2.00;;;18.80;99.90;;;;;;5024126;28;20034;-65
2023/09/02 08:06:08;;;;;;;5.50;2.03;;;18.90;99.90;;;;;;5024029;28;20049;-65
2023/09/02 08:08:35;;;;;;;3.50;1.77;;;19.10;99.90;;;;;;5023989;28;20061;-65
2023/09/02 08:11:04;;;;;;;4.47;1.70;;;19.20;99.90;;;;;;5023167;28;20586;-65
2023/09/02 08:13:31;;;;;;;;;;;19.30;99.90;;;;;;5025538;28;20056;-65
2023/09/02 08:15:57;;;;;;;7.53;1.60;;;19.30;99.90;;;;;;5023984;28;20786;-65
2023/09/02 08:18:23;;;;;;;2.80;2.05;;;19.50;99.70;;;;;;5023657;28;20049;-66
2023/09/02 08:20:48;;;;;;;5.35;1.50;;;19.60;98.20;;;;;;5024698;28;20491;-65
2023/09/02 08:23:14;;;;;;;5.82;2.10;;;19.80;96.80;;;;;;5025049;28;20122;-65
2023/09/02 08:25:40;;;;;;;3.75;2.05;;;19.90;99.40;;;;;;5022407;28;20168;-64
2023/09/02 08:28:05;;;;;;;8.63;2.70;;;20.00;97.10;;;;;;5024531;28;20081;-65
2023/09/02 08:30:31;;;;;;;3.90;2.50;;;20.10;99.90;;;;;;5025149;28;20041;-65
2023/09/02 08:32:57;;;;;;;5.18;3.28;;;20.10;83.20;;;;;;5026925;28;20051;-65
2023/09/02 08:35:23;;;;;;;4.43;2.53;;;20.10;91.00;;;;;;5029299;28;20338;-65
2023/09/02 08:37:48;;;;;;;3.72;2.47;;;20.10;94.90;;;;;;5028646;28;20136;-65
2023/09/02 08:40:14;;;;;;;6.72;2.38;;;20.20;94.50;;;;;;5027539;28;20132;-65
2023/09/02 08:42:41;;;;;;;3.22;1.85;;;20.30;94.60;;;;;;5028653;28;20406;-65
2023/09/02 08:45:08;;;;;;;4.32;2.50;;;20.40;92.50;;;;;;5027319;28;20169;-65
2023/09/02 08:47:39;;;;;;;6.82;2.78;;;20.40;90.20;;;;;;5021848;28;20112;-65
2023/09/02 08:50:09;;;;;;;5.05;2.40;;;20.40;84.50;;;;;;5026079;28;20092;-65
2023/09/02 08:52:35;;;;;;;5.18;2.33;;;20.40;91.70;;;;;;5029437;28;20064;-65
2023/09/02 08:55:02;;;;;;;4.57;2.85;;;20.40;90.20;;;;;;5027949;28;20139;-65
2023/09/02 08:57:28;;;;;;;3.35;2.40;;;20.40;71.60;;;;;;5027284;28;20045;-65
2023/09/02 08:59:54;;;;;;;8.40;2.50;;;20.40;74.90;;;;;;5020047;28;20068;-65
2023/09/02 09:02:21;;;;;;;4.32;2.50;;;20.30;60.90;;;;;;5026222;28;20055;-65
2023/09/02 09:04:48;;;;;;;4.82;2.40;;;20.30;66.70;;;;;;5010247;28;20783;-65
2023/09/02 09:07:17;;;;;;;10.68;2.30;;;20.30;70.50;;;;;;5010178;28;20049;-65
2023/09/02 09:09:45;;;;;;;8.32;2.83;;;20.40;69.90;;;;;;5028506;28;20061;-65
2023/09/02 09:12:13;;;;;;;6.45;2.45;;;20.40;63.30;;;;;;5027349;28;20041;-65
2023/09/02 09:14:45;;;;;;;5.13;2.30;;;20.40;64.80;;;;;;5013851;28;20095;-65
2023/09/02 09:17:13;;;;;;;5.45;2.20;;;20.50;65.60;;;;;;5025936;28;20053;-65
2023/09/02 09:19:39;;;;;;;5.32;2.53;;;20.60;74.60;;;;;;5028519;28;20044;-65
2023/09/02 09:22:05;;;;;;;4.07;2.67;;;20.60;48.80;;;;;;5027748;28;20038;-65
2023/09/02 09:24:31;;;;;;;6.22;2.78;;;20.60;52.10;;;;;;5027757;28;20045;-65
2023/09/02 09:27:05;;;;;;;5.43;2.95;;;20.60;49.20;;;;;;5028531;28;20042;-65
2023/09/02 09:29:40;;;;;;;4.45;2.33;;;20.60;47.80;;;;;;5025641;28;20451;-65
2023/09/02 09:32:14;;;;;;;5.95;2.40;;;20.60;51.50;;;;;;5028529;28;20048;-65
2023/09/02 09:34:44;;;;;;;7.57;2.72;;;20.60;42.20;;;;;;5027804;28;20650;-65
2023/09/02 09:37:10;;;;;;;5.07;2.03;;;20.70;35.50;;;;;;5010670;28;20566;-65
2023/09/02 09:39:41;;;;;;;5.32;2.65;;;20.80;33.90;;;;;;5025974;28;20049;-65
2023/09/02 09:42:07;;;;;;;3.83;2.25;;;20.80;19.40;;;;;;5026061;28;20352;-65
2023/09/02 09:44:33;;;;;;;5.65;2.50;;;20.80;27.80;;;;;;5027620;28;20041;-65
2023/09/02 09:46:59;;;;;;;6.97;2.35;;;20.80;31.80;;;;;;5027737;28;20057;-65
2023/09/02 09:49:29;;;;;;;4.72;2.10;;;20.80;29.00;;;;;;5027948;28;20145;-65
2023/09/02 09:52:01;;;;;;;5.07;2.60;;;20.90;28.20;;;;;;5027521;28;20049;-65
2023/09/02 09:54:50;;;;;;;2.35;2.10;;;21.00;34.50;;;;;;5027310;28;20071;-65
2023/09/02 09:57:35;;;;;;;8.52;3.17;;;21.00;24.60;;;;;;5026469;28;20053;-65
2023/09/02 10:00:01;;;;;;;5.07;2.30;;;20.90;19.70;;;;;;5007095;28;20056;-65
2023/09/02 10:02:27;;;;;;;9.32;2.40;;;21.00;29.60;;;;;;5027780;28;20045;-65
2023/09/02 10:04:55;;;;;;;6.03;2.25;;;21.00;28.40;;;;;;5026815;28;20053;-66
2023/09/02 10:07:25;;;;;;;9.15;2.42;;;21.10;25.80;;;;;;5025943;28;20041;-65
2023/09/02 10:09:54;;;;;;;3.00;2.15;;;21.10;26.60;;;;;;5027179;28;20051;-65
2023/09/02 10:12:21;;;;;;;3.20;2.63;;;21.10;23.30;;;;;;5025549;28;20046;-65
2023/09/02 10:14:48;;;;;;;3.75;2.10;;;21.00;17.30;;;;;;5025706;28;20049;-65
2023/09/02 10:17:15;;;;;;;4.70;2.22;;;21.00;25.80;;;;;;5025711;28;20044;-65
2023/09/02 10:19:42;;;;;;;6.63;2.55;;;20.80;21.10;;;;;;5025940;28;20120;-65
2023/09/02 10:22:08;;;;;;;4.97;2.50;;;20.60;11.00;;;;;;5025360;28;20049;-65
2023/09/02 10:24:40;;;;;;;5.50;2.78;;;20.50;23.60;;;;;;5025578;28;20077;-65
2023/09/02 10:27:16;;;;;;;5.55;2.75;;;20.60;33.80;;;;;;5025904;28;20396;-65
2023/09/02 10:29:43;;;;;;;9.07;2.72;;;20.80;33.60;;;;;;5026317;28;20041;-65
2023/09/02 10:32:12;;;;;;;7.07;2.50;;;20.80;24.20;;;;;;5027739;28;20057;-66
2023/09/02 10:35:03;;;;;;;4.97;3.00;;;20.90;28.30;;;;;;5024185;28;20040;-65
2023/09/02 10:37:52;;;;;;;10.10;3.13;;;20.90;24.20;;;;;;5026756;28;20042;-66
2023/09/02 10:40:30;;;;;;;4.22;2.60;;;21.00;25.90;;;;;;5026840;28;20091;-66
2023/09/02 10:42:55;;;;;;;3.72;2.50;;;20.90;10.10;;;;;;5025814;28;20050;-65
2023/09/02 10:45:22;;;;;;;5.20;2.58;;;20.70;20.50;;;;;;5026682;28;20041;-66
2023/09/02 10:47:50;;;;;;;2.97;2.30;;;20.70;21.30;;;;;;5026279;28;20521;-66
2023/09/02 10:50:18;;;;;;;5.97;2.60;;;20.60;26.30;;;;;;5027000;28;20416;-66
2023/09/02 10:52:44;;;;;;;7.43;3.10;;;20.70;30.10;;;;;;5025862;28;20033;-65
2023/09/02 10:55:11;;;;;;;3.58;2.13;;;20.60;27.20;;;;;;5025803;28;20442;-66
2023/09/02 10:57:49;;;;;;;3.80;2.08;;;20.70;36.70;;;;;;5025879;28;20041;-65
2023/09/02 11:00:19;;;;;;;3.72;1.80;;;20.70;32.80;;;;;;5024262;28;20033;-65
2023/09/02 11:02:47;;;;;;;6.47;2.50;;;20.70;32.80;;;;;;5023539;28;20046;-66
2023/09/02 11:05:13;;;;;;;3.50;2.13;;;20.50;31.40;;;;;;5023195;28;20175;-65
2023/09/02 11:07:40;;;;;;;4.90;2.20;;;20.50;34.20;;;;;;5026188;28;20040;-65
2023/09/02 11:10:08;;;;;;;6.03;2.65;;;20.60;37.10;;;;;;5025517;28;20585;-65
2023/09/02 11:12:34;;;;;;;4.00;3.17;;;20.50;28.90;;;;;;5026311;28;20096;-65
2023/09/02 11:15:08;;;;;;;5.30;3.60;;;20.50;41.50;;;;;;5026403;28;20069;-66
2023/09/02 11:17:36;;;;;;;6.78;3.63;;;20.50;45.20;;;;;;5024966;28;20115;-65
2023/09/02 11:20:06;;;;;;;6.15;3.88;;;20.50;47.70;;;;;;5026917;28;20147;-65
2023/09/02 11:22:51;;;;;;;3.65;2.20;;;20.40;35.80;;;;;;5025016;28;20051;-66
2023/09/02 11:25:27;;;;;;;3.83;2.25;;;20.30;44.20;;;;;;5025725;28;20610;-65
2023/09/02 11:27:55;;;;;;;5.00;1.80;;;20.40;38.70;;;;;;5020215;28;20055;-65
2023/09/02 11:30:23;;;;;;;4.00;1.70;;;20.40;33.70;;;;;;5023720;28;20046;-65
2023/09/02 11:32:49;;;;;;;2.17;1.50;;;20.40;34.80;;;;;;5024122;28;20056;-65
2023/09/02 11:35:23;;;;;;;5.15;1.50;;;20.50;43.90;;;;;;5024714;28;20138;-65
2023/09/02 11:37:49;;;;;;;5.00;1.40;;;20.40;22.20;;;;;;5025377;28;20095;-65
2023/09/02 11:40:19;;;;;;;5.03;1.80;;;20.40;24.40;;;;;;5025235;28;20045;-65
2023/09/02 11:42:59;;;;;;;1.70;1.15;;;20.30;21.80;;;;;;5025687;28;20041;-65
2023/09/02 11:45:38;;;;;;;3.55;1.05;;;20.30;22.60;;;;;;5032252;28;20061;-65
2023/09/02 11:48:06;;;;;;;2.63;1.23;;;20.40;26.60;;;;;;5024715;28;20042;-65
2023/09/02 11:50:32;;;;;;;6.30;1.58;;;20.40;26.70;;;;;;5025486;28;20092;-66
2023/09/02 11:52:58;;;;;;;3.72;0.75;;;20.50;30.10;;;;;;5017118;28;20511;-65
2023/09/02 11:55:25;;;;;;;2.28;1.08;;;20.60;30.00;;;;;;5025563;28;20045;-65
2023/09/02 11:57:52;;;;;;;2.25;0.93;;;20.70;31.00;;;;;;5022556;28;20049;-65
2023/09/02 12:00:22;;;;;;;4.30;1.30;;;20.70;23.00;;;;;;5025753;28;20045;-65
2023/09/02 12:02:48;;;;;;;2.55;1.20;;;20.60;16.40;;;;;;5023756;28;20084;-65
2023/09/02 12:05:15;;;;;;;1.75;1.00;;;20.60;20.50;;;;;;5025159;28;20064;-65
2023/09/02 12:07:43;;;;;;;4.68;1.20;;;20.50;15.70;;;;;;5023831;28;20096;-65
2023/09/02 12:10:14;;;;;;;4.20;0.90;;;20.50;26.90;;;;;;5024833;28;20061;-65
2023/09/02 12:12:44;;;;;;;2.60;0.93;;;20.40;29.70;;;;;;5025404;28;20045;-65
2023/09/02 12:15:20;;;;;;;1.73;0.90;;;20.50;23.40;;;;;;5023802;28;20129;-65
2023/09/02 12:17:47;;;;;;;4.78;1.25;;;20.50;11.10;;;;;;5024511;28;20048;-65
2023/09/02 12:20:14;;;;;;;1.75;0.90;;;20.40;18.90;;;;;;5026292;28;20152;-65
2023/09/02 12:22:41;;;;;;;0.82;0.55;;;20.20;19.00;;;;;;5023493;28;20041;-66
2023/09/02 12:25:15;;;;;;;2.92;0.80;;;20.40;36.10;;;;;;5024415;28;20053;-65
2023/09/02 12:27:41;;;;;;;1.00;0.60;;;20.50;32.90;;;;;;5024263;28;20155;-66
2023/09/02 12:30:08;;;;;;;1.55;0.60;;;20.60;20.60;;;;;;5007963;28;20071;-65
2023/09/02 12:32:33;;;;;;;1.17;0.60;;;20.60;17.50;;;;;;5024732;28;20052;-65
2023/09/02 12:34:59;;;;;;;1.92;0.70;;;20.50;24.00;;;;;;5022936;28;20046;-65
2023/09/02 12:37:26;;;;;;;0.98;0.60;;;20.50;26.40;;;;;;5025775;28;20176;-65
2023/09/02 12:39:52;;;;;;;1.85;0.60;;;20.50;28.10;;;;;;5024401;28;20048;-65
2023/09/02 12:42:24;;;;;;;1.52;0.60;;;20.50;20.00;;;;;;5025935;28;20476;-65
2023/09/02 12:45:00;;;;;;;0.70;0.60;;;20.40;19.80;;;;;;5024198;28;20499;-65
2023/09/02 12:47:27;;;;;;;1.92;0.70;;;20.40;15.60;;;;;;5025555;28;20399;-65